createdAt,value
2023-02-22T00:01:51.141Z,55.25
2023-02-22T00:04:21.350Z,54.15
2023-02-22T00:06:50.798Z,51.47
2023-02-22T00:09:20.777Z,50.85
2023-02-22T00:11:49.263Z,54.28
2023-02-22T00:14:20.401Z,49.08
2023-02-22T00:16:50.614Z,50.17
2023-02-22T00:19:19.046Z,54.00
2023-02-22T00:21:47.437Z,56.25
2023-02-22T00:24:23.817Z,59.65
2023-02-22T00:26:52.698Z,50.30
2023-02-22T00:29:20.480Z,54.55
2023-02-22T00:31:52.227Z,51.13
2023-02-22T00:34:20.173Z,52.28
2023-02-22T00:36:48.287Z,49.45
2023-02-22T00:39:16.188Z,46.97
2023-02-22T00:41:44.352Z,47.03
2023-02-22T00:44:12.690Z,47.72
2023-02-22T00:46:40.444Z,48.92
2023-02-22T00:49:09.580Z,42.20
2023-02-22T00:51:37.293Z,46.40
2023-02-22T00:54:05.376Z,48.42
2023-02-22T00:56:34.138Z,49.08
2023-02-22T00:59:02.214Z,48.63
2023-02-22T01:01:30.335Z,45.45
2023-02-22T01:03:58.174Z,43.03
2023-02-22T01:06:27.431Z,43.38
2023-02-22T01:08:55.224Z,43.60
2023-02-22T01:11:23.380Z,45.40
2023-02-22T01:13:54.114Z,48.90
2023-02-22T01:16:22.676Z,47.83
2023-02-22T01:18:50.620Z,49.53
2023-02-22T01:21:18.716Z,46.80
2023-02-22T01:23:48.443Z,47.58
2023-02-22T01:26:16.284Z,45.00
2023-02-22T01:28:44.051Z,49.35
2023-02-22T01:31:12.545Z,50.05
2023-02-22T01:33:41.449Z,49.17
2023-02-22T01:36:11.474Z,45.65
2023-02-22T01:38:39.494Z,51.42
2023-02-22T01:41:09.006Z,51.88
2023-02-22T01:43:36.743Z,47.25
2023-02-22T01:46:05.664Z,53.83
2023-02-22T01:48:40.116Z,56.83
2023-02-22T01:51:12.454Z,50.40
2023-02-22T01:53:47.327Z,53.05
2023-02-22T01:56:17.161Z,52.67
2023-02-22T01:58:50.201Z,52.30
2023-02-22T02:01:20.863Z,44.85
2023-02-22T02:03:49.369Z,57.40
2023-02-22T02:06:18.012Z,57.55
2023-02-22T02:08:53.959Z,62.55
2023-02-22T02:11:25.775Z,59.28
2023-02-22T02:13:56.059Z,65.45
2023-02-22T02:16:25.703Z,64.35
2023-02-22T02:18:54.324Z,67.38
2023-02-22T02:22:06.504Z,68.30
2023-02-22T02:25:00.230Z,64.22
2023-02-22T02:27:40.294Z,68.68
2023-02-22T02:30:43.623Z,69.45
2023-02-22T02:33:21.939Z,71.28
2023-02-22T02:35:57.542Z,71.13
2023-02-22T02:38:35.249Z,74.63
2023-02-22T02:41:11.826Z,75.63
2023-02-22T02:43:46.937Z,77.63
2023-02-22T02:46:19.444Z,79.10
2023-02-22T02:48:54.806Z,76.55
2023-02-22T02:51:24.074Z,76.05
2023-02-22T02:53:53.567Z,84.68
2023-02-22T02:56:23.376Z,81.15
2023-02-22T02:58:53.306Z,82.03
2023-02-22T03:01:42.987Z,86.82
2023-02-22T03:04:28.491Z,79.30
2023-02-22T03:07:12.063Z,84.78
2023-02-22T03:09:49.388Z,87.15
2023-02-22T03:12:29.073Z,86.28
2023-02-22T03:15:08.338Z,84.78
2023-02-22T03:17:44.327Z,84.22
2023-02-22T03:20:21.966Z,87.60
2023-02-22T03:22:56.326Z,83.72
2023-02-22T03:25:29.119Z,82.60
2023-02-22T03:28:02.343Z,84.70
2023-02-22T03:30:36.882Z,93.55
2023-02-22T03:33:10.549Z,81.05
2023-02-22T03:35:44.642Z,90.35
2023-02-22T03:38:14.454Z,93.97
2023-02-22T03:40:46.334Z,78.70
2023-02-22T03:43:17.683Z,90.43
2023-02-22T03:45:48.216Z,95.03
2023-02-22T03:48:21.424Z,97.50
2023-02-22T03:50:51.963Z,89.45
2023-02-22T03:53:23.118Z,139.90
2023-02-22T03:55:52.801Z,102.43
2023-02-22T03:58:23.924Z,185.50
2023-02-22T04:00:53.096Z,137.15
2023-02-22T04:03:21.502Z,145.98
2023-02-22T04:05:50.875Z,146.90
2023-02-22T04:08:18.725Z,123.32
2023-02-22T04:10:46.735Z,117.25
2023-02-22T04:13:14.684Z,142.02
2023-02-22T04:15:42.526Z,133.98
2023-02-22T04:18:10.275Z,157.18
2023-02-22T04:20:38.012Z,140.52
2023-02-22T04:23:07.471Z,286.50
2023-02-22T04:25:35.235Z,165.98
2023-02-22T04:28:04.001Z,160.65
2023-02-22T04:30:31.950Z,179.38
2023-02-22T04:32:59.815Z,147.13
2023-02-22T04:35:27.663Z,145.55
2023-02-22T04:37:55.417Z,123.72
2023-02-22T04:40:24.672Z,104.90
2023-02-22T04:42:52.390Z,107.70
2023-02-22T04:45:20.417Z,97.95
2023-02-22T04:47:48.290Z,131.00
2023-02-22T04:50:17.260Z,129.82
2023-02-22T04:52:45.668Z,134.18
2023-02-22T04:55:13.435Z,114.53
2023-02-22T04:57:42.558Z,82.25
2023-02-22T05:00:11.436Z,129.73
2023-02-22T05:02:40.031Z,155.95
2023-02-22T05:05:08.483Z,143.98
2023-02-22T05:07:36.255Z,165.70
2023-02-22T05:10:04.114Z,157.20
2023-02-22T05:12:31.818Z,95.28
2023-02-22T05:15:00.919Z,95.30
2023-02-22T05:17:28.723Z,119.90
2023-02-22T05:19:56.540Z,77.95
2023-02-22T05:22:24.520Z,109.38
2023-02-22T05:24:52.958Z,107.65
2023-02-22T05:27:21.853Z,108.35
2023-02-22T05:29:49.826Z,98.50
2023-02-22T05:32:19.004Z,75.20
2023-02-22T05:34:46.799Z,83.57
2023-02-22T05:37:14.564Z,73.90
2023-02-22T05:39:42.299Z,70.25
2023-02-22T05:42:10.035Z,52.70
2023-02-22T05:44:37.794Z,45.10
2023-02-22T05:47:05.628Z,44.05
2023-02-22T05:49:34.763Z,48.22
2023-02-22T05:52:02.538Z,60.72
2023-02-22T05:54:30.282Z,100.22
2023-02-22T05:56:58.036Z,76.72
2023-02-22T05:59:25.778Z,83.28
2023-02-22T06:01:53.538Z,72.40
2023-02-22T06:04:21.316Z,97.50
2023-02-22T06:06:50.410Z,64.93
2023-02-22T06:09:18.276Z,70.97
2023-02-22T06:11:46.031Z,88.55
2023-02-22T06:14:13.783Z,105.68
2023-02-22T06:16:41.618Z,83.82
2023-02-22T06:19:09.455Z,69.47
2023-02-22T06:21:37.195Z,73.95
2023-02-22T06:24:07.031Z,71.22
2023-02-22T06:26:34.779Z,89.93
2023-02-22T06:29:02.529Z,64.53
2023-02-22T06:31:31.804Z,68.63
2023-02-22T06:33:59.525Z,95.93
2023-02-22T06:36:27.249Z,80.07
2023-02-22T06:38:55.087Z,88.38
2023-02-22T06:41:24.555Z,73.32
2023-02-22T06:43:52.298Z,67.70
2023-02-22T06:46:21.187Z,72.53
2023-02-22T06:48:50.058Z,78.70
2023-02-22T06:51:18.074Z,65.95
2023-02-22T06:53:46.056Z,84.53
2023-02-22T06:56:13.872Z,76.13
2023-02-22T06:58:42.979Z,65.80
2023-02-22T07:01:10.879Z,67.57
2023-02-22T07:03:38.783Z,62.47
2023-02-22T07:06:08.154Z,61.53
2023-02-22T07:08:35.892Z,79.90
2023-02-22T07:11:03.668Z,70.22
2023-02-22T07:13:31.422Z,66.45
2023-02-22T07:16:00.629Z,56.63
2023-02-22T07:18:30.010Z,58.10
2023-02-22T07:20:58.697Z,64.22
2023-02-22T07:23:27.082Z,59.75
2023-02-22T07:25:54.827Z,67.72
2023-02-22T07:28:22.613Z,60.67
2023-02-22T07:30:50.329Z,57.30
2023-02-22T07:33:19.499Z,60.30
2023-02-22T07:35:49.708Z,65.35
2023-02-22T07:38:18.860Z,55.20
2023-02-22T07:40:46.969Z,63.58
2023-02-22T07:43:17.773Z,54.75
2023-02-22T07:45:46.354Z,52.78
2023-02-22T07:48:17.407Z,61.22
2023-02-22T07:50:47.405Z,53.08
2023-02-22T07:53:18.717Z,50.78
2023-02-22T07:55:46.565Z,51.28
2023-02-22T07:58:16.413Z,46.95
2023-02-22T08:00:45.029Z,50.22
2023-02-22T08:03:14.588Z,46.28
2023-02-22T08:05:43.881Z,50.03
2023-02-22T08:08:14.682Z,55.25
2023-02-22T08:10:43.239Z,44.40
2023-02-22T08:13:11.114Z,44.60
2023-02-22T08:15:40.242Z,43.80
2023-02-22T08:18:10.135Z,42.13
2023-02-22T08:20:39.376Z,43.33
2023-02-22T08:23:07.880Z,46.33
2023-02-22T08:25:37.371Z,43.85
2023-02-22T08:28:06.978Z,45.42
2023-02-22T08:30:38.315Z,49.35
2023-02-22T08:33:08.038Z,45.40
2023-02-22T08:35:35.881Z,44.03
2023-02-22T08:38:06.009Z,48.67
2023-02-22T08:40:35.792Z,51.17
2023-02-22T08:43:06.615Z,52.25
2023-02-22T08:45:34.508Z,51.30
2023-02-22T08:48:02.278Z,51.08
2023-02-22T08:50:33.622Z,55.63
2023-02-22T08:53:03.175Z,57.42
2023-02-22T08:55:33.296Z,55.13
2023-02-22T08:58:03.060Z,55.60
2023-02-22T09:00:34.083Z,56.42
2023-02-22T09:03:02.626Z,53.55
2023-02-22T09:05:31.603Z,52.63
2023-02-22T09:08:00.093Z,54.75
2023-02-22T09:10:29.934Z,50.70
2023-02-22T09:12:58.336Z,46.75
2023-02-22T09:15:27.007Z,43.83
2023-02-22T09:17:56.757Z,45.83
2023-02-22T09:20:26.050Z,39.67
2023-02-22T09:22:54.709Z,42.72
2023-02-22T09:25:23.333Z,40.80
2023-02-22T09:27:52.844Z,41.67
2023-02-22T09:30:24.770Z,39.15
2023-02-22T09:32:54.783Z,38.95
2023-02-22T09:35:27.142Z,44.78
2023-02-22T09:37:56.383Z,42.97
2023-02-22T09:40:30.034Z,39.33
2023-02-22T09:45:36.927Z,37.13
2023-02-22T09:50:53.814Z,41.65
2023-02-22T09:53:29.671Z,37.92
2023-02-22T09:56:01.714Z,36.97
2023-02-22T09:58:33.681Z,35.40
2023-02-22T10:01:17.663Z,34.65
2023-02-22T10:03:52.115Z,38.75
2023-02-22T10:06:25.529Z,41.10
2023-02-22T10:08:58.386Z,38.70
2023-02-22T10:11:41.318Z,38.80
2023-02-22T10:14:31.035Z,34.00
2023-02-22T10:17:04.343Z,39.45
2023-02-22T10:19:44.242Z,42.55
2023-02-22T10:22:31.371Z,38.30
2023-02-22T10:25:02.268Z,39.08
2023-02-22T10:27:34.254Z,33.75
2023-02-22T10:30:22.373Z,34.58
2023-02-22T10:32:56.480Z,39.53
2023-02-22T10:35:26.209Z,47.65
2023-02-22T10:38:00.745Z,40.13
2023-02-22T10:40:33.093Z,37.88
2023-02-22T10:43:06.172Z,38.35
2023-02-22T10:45:37.207Z,33.45
2023-02-22T10:48:11.588Z,35.70
2023-02-22T10:50:41.541Z,38.33
2023-02-22T10:53:12.050Z,36.72
2023-02-22T10:56:13.783Z,35.90
2023-02-22T10:58:48.293Z,32.45
2023-02-22T11:01:26.179Z,34.00
2023-02-22T11:04:02.552Z,35.83
2023-02-22T11:06:30.869Z,48.45
2023-02-22T11:09:18.984Z,32.97
2023-02-22T11:11:48.678Z,31.88
2023-02-22T11:14:28.032Z,30.35
2023-02-22T11:16:57.727Z,29.52
2023-02-22T11:19:27.637Z,30.80
2023-02-22T11:21:58.279Z,32.13
2023-02-22T11:24:37.287Z,35.70
2023-02-22T11:27:25.147Z,29.48
2023-02-22T11:29:53.704Z,28.02
2023-02-22T11:32:22.470Z,31.65
2023-02-22T11:35:03.549Z,30.88
2023-02-22T11:37:38.023Z,26.15
2023-02-22T11:40:17.767Z,26.67
2023-02-22T11:42:46.100Z,27.75
2023-02-22T11:45:20.719Z,28.50
2023-02-22T11:47:53.870Z,34.10
2023-02-22T11:50:32.933Z,27.98
2023-02-22T11:53:22.481Z,32.55
2023-02-22T11:56:04.593Z,27.30
2023-02-22T11:58:42.869Z,30.08
2023-02-22T12:01:20.957Z,30.95
2023-02-22T12:04:17.014Z,24.73
2023-02-22T12:06:52.912Z,33.78
2023-02-22T12:09:28.030Z,30.00
2023-02-22T12:12:10.517Z,27.52
2023-02-22T12:14:45.248Z,25.10
2023-02-22T12:17:25.508Z,23.58
2023-02-22T12:19:58.780Z,27.15
2023-02-22T12:22:34.166Z,24.98
2023-02-22T12:25:09.715Z,24.42
2023-02-22T12:27:45.245Z,23.70
2023-02-22T12:30:20.716Z,23.55
2023-02-22T12:32:52.054Z,25.67
2023-02-22T12:35:22.956Z,26.70
2023-02-22T12:38:01.728Z,26.80
2023-02-22T12:40:36.728Z,25.27
2023-02-22T12:43:16.677Z,25.83
2023-02-22T12:45:50.325Z,27.45
2023-02-22T12:48:27.356Z,22.75
2023-02-22T12:50:59.372Z,27.17
2023-02-22T12:53:31.589Z,21.92
2023-02-22T12:56:05.844Z,22.88
2023-02-22T12:58:46.691Z,23.92
2023-02-22T13:01:20.297Z,26.90
2023-02-22T13:06:36.735Z,24.15
2023-02-22T13:09:24.394Z,23.50
2023-02-22T13:12:02.576Z,28.17
2023-02-22T13:14:45.842Z,23.75
2023-02-22T13:17:21.277Z,27.17
2023-02-22T13:19:59.029Z,25.83
2023-02-22T13:22:35.157Z,24.30
2023-02-22T13:25:11.217Z,23.67
2023-02-22T13:27:43.916Z,26.02
2023-02-22T13:30:23.052Z,25.55
2023-02-22T13:33:01.946Z,28.40
2023-02-22T13:35:59.177Z,29.30
2023-02-22T13:39:13.021Z,29.33
2023-02-22T13:41:51.900Z,29.90
2023-02-22T13:44:52.475Z,34.28
2023-02-22T13:47:49.785Z,31.73
2023-02-22T13:50:42.608Z,34.10
2023-02-22T13:53:15.616Z,28.42
2023-02-22T13:55:49.446Z,42.20
2023-02-22T14:00:51.159Z,32.38
2023-02-22T14:03:36.185Z,27.45
2023-02-22T14:06:06.342Z,29.35
2023-02-22T14:08:46.666Z,43.70
2023-02-22T14:11:45.424Z,28.48
2023-02-22T14:14:17.251Z,28.67
2023-02-22T14:16:45.527Z,31.05
2023-02-22T14:19:23.495Z,30.95
2023-02-22T14:22:02.089Z,40.50
2023-02-22T14:24:35.090Z,29.00
2023-02-22T14:27:05.089Z,32.90
2023-02-22T14:29:33.170Z,29.83
2023-02-22T14:32:07.526Z,26.90
2023-02-22T14:34:46.620Z,27.55
2023-02-22T14:37:19.047Z,24.33
2023-02-22T14:39:51.195Z,26.25
2023-02-22T14:42:24.996Z,28.83
2023-02-22T14:45:00.520Z,29.88
2023-02-22T14:47:40.370Z,26.60
2023-02-22T14:50:16.163Z,28.58
2023-02-22T14:52:47.481Z,33.78
2023-02-22T14:55:21.435Z,31.20
2023-02-22T14:58:01.358Z,32.05
2023-02-22T15:00:38.522Z,37.38
2023-02-22T15:03:06.331Z,26.80
2023-02-22T15:05:39.291Z,29.45
2023-02-22T15:08:09.215Z,29.80
2023-02-22T15:10:43.824Z,35.28
2023-02-22T15:13:20.461Z,45.15
2023-02-22T15:15:49.940Z,30.33
2023-02-22T15:18:25.248Z,29.63
2023-02-22T15:20:59.455Z,35.03
2023-02-22T15:23:30.789Z,35.13
2023-02-22T15:25:59.171Z,34.75
2023-02-22T15:28:30.948Z,37.33
2023-02-22T15:31:24.952Z,35.38
2023-02-22T15:33:54.770Z,32.80
2023-02-22T15:36:28.619Z,35.53
2023-02-22T15:41:29.078Z,39.47
2023-02-22T15:44:08.076Z,44.55
2023-02-22T15:46:42.063Z,42.50
2023-02-22T15:49:23.234Z,44.13
2023-02-22T15:52:04.480Z,38.85
2023-02-22T15:54:40.899Z,48.03
2023-02-22T15:57:09.406Z,39.90
2023-02-22T15:59:44.985Z,56.47
2023-02-22T16:02:32.388Z,47.70
2023-02-22T16:05:03.899Z,55.05
2023-02-22T16:07:33.646Z,49.88
2023-02-22T16:10:08.956Z,49.47
2023-02-22T16:12:37.276Z,55.30
2023-02-22T16:15:16.644Z,49.72
2023-02-22T16:18:01.076Z,53.92
2023-02-22T16:20:36.589Z,58.50
2023-02-22T16:23:27.215Z,66.03
2023-02-22T16:26:07.145Z,66.18
2023-02-22T16:28:35.965Z,80.32
2023-02-22T16:31:04.756Z,68.07
2023-02-22T16:33:33.923Z,73.40
2023-02-22T16:36:08.159Z,83.90
2023-02-22T16:38:39.200Z,80.93
2023-02-22T16:41:08.179Z,89.10
2023-02-22T16:43:36.812Z,85.68
2023-02-22T16:46:06.900Z,82.47
2023-02-22T16:48:38.176Z,91.22
2023-02-22T16:51:14.959Z,83.55
2023-02-22T16:53:44.612Z,79.38
2023-02-22T16:56:16.304Z,75.25
2023-02-22T16:58:47.215Z,89.82
2023-02-22T17:01:15.014Z,83.03
2023-02-22T17:03:42.964Z,88.30
2023-02-22T17:06:11.525Z,87.05
2023-02-22T17:08:40.207Z,83.65
2023-02-22T17:11:11.846Z,87.00
2023-02-22T17:13:41.543Z,81.38
2023-02-22T17:16:14.725Z,75.30
2023-02-22T17:18:42.758Z,85.28
2023-02-22T17:21:12.304Z,84.93
2023-02-22T17:23:40.103Z,91.28
2023-02-22T17:26:09.267Z,90.88
2023-02-22T17:28:37.101Z,83.00
2023-02-22T17:31:05.199Z,87.75
2023-02-22T17:33:36.657Z,87.20
2023-02-22T17:36:06.293Z,93.80
2023-02-22T17:38:34.804Z,89.40
2023-02-22T17:41:03.225Z,90.03
2023-02-22T17:43:32.405Z,86.20
2023-02-22T17:46:00.333Z,85.45
2023-02-22T17:48:28.732Z,91.57
2023-02-22T17:50:56.466Z,83.57
2023-02-22T17:53:25.471Z,82.63
2023-02-22T17:55:53.479Z,84.63
2023-02-22T17:58:22.344Z,89.63
2023-02-22T18:00:51.862Z,80.82
2023-02-22T18:03:25.464Z,82.90
2023-02-22T18:06:01.398Z,76.20
2023-02-22T18:08:31.144Z,73.07
2023-02-22T18:11:02.037Z,75.72
2023-02-22T18:13:30.129Z,112.85
2023-02-22T18:16:00.619Z,78.45
2023-02-22T18:18:28.962Z,75.95
2023-02-22T18:20:59.851Z,81.32
2023-02-22T18:23:29.699Z,70.45
2023-02-22T18:26:10.083Z,71.28
2023-02-22T18:28:38.748Z,70.80
2023-02-22T18:31:09.816Z,71.63
2023-02-22T18:33:38.097Z,69.95
2023-02-22T18:36:06.947Z,73.95
2023-02-22T18:38:34.735Z,73.28
2023-02-22T18:41:03.961Z,74.50
2023-02-22T18:43:34.390Z,74.18
2023-02-22T18:46:11.678Z,71.35
2023-02-22T18:48:39.928Z,59.55
2023-02-22T18:51:09.821Z,69.07
2023-02-22T18:53:38.614Z,68.25
2023-02-22T18:56:08.374Z,61.33
2023-02-22T18:58:38.849Z,70.40
2023-02-22T19:01:08.021Z,61.58
2023-02-22T19:03:38.427Z,64.63
2023-02-22T19:06:09.157Z,70.85
2023-02-22T19:08:39.644Z,71.63
2023-02-22T19:11:09.319Z,79.38
2023-02-22T19:13:37.580Z,60.83
2023-02-22T19:16:07.253Z,71.65
2023-02-22T19:18:35.383Z,70.13
2023-02-22T19:21:09.598Z,71.00
2023-02-22T19:23:39.509Z,65.95
2023-02-22T19:26:09.364Z,72.32
2023-02-22T19:28:37.196Z,76.47
2023-02-22T19:31:13.492Z,75.68
2023-02-22T19:33:41.584Z,69.50
2023-02-22T19:36:12.385Z,77.75
2023-02-22T19:38:40.666Z,78.78
2023-02-22T19:41:10.828Z,81.22
2023-02-22T19:43:38.782Z,74.25
2023-02-22T19:46:07.654Z,80.05
2023-02-22T19:48:36.018Z,84.70
2023-02-22T19:51:06.234Z,76.50
2023-02-22T19:53:35.914Z,83.95
2023-02-22T19:56:09.545Z,83.10
2023-02-22T19:58:37.876Z,85.55
2023-02-22T20:01:16.016Z,86.30
2023-02-22T20:03:44.156Z,86.93
2023-02-22T20:06:16.261Z,88.63
2023-02-22T20:08:45.561Z,85.05
2023-02-22T20:11:14.314Z,84.03
2023-02-22T20:13:43.656Z,87.90
2023-02-22T20:16:15.619Z,85.55
2023-02-22T20:18:43.655Z,92.15
2023-02-22T20:21:15.185Z,105.03
2023-02-22T20:23:44.420Z,103.72
2023-02-22T20:26:18.463Z,104.90
2023-02-22T20:28:46.935Z,86.80
2023-02-22T20:31:16.316Z,94.18
2023-02-22T20:33:45.671Z,88.22
2023-02-22T20:36:15.375Z,95.18
2023-02-22T20:38:43.806Z,85.97
2023-02-22T20:41:17.234Z,99.22
2023-02-22T20:43:45.217Z,99.18
2023-02-22T20:46:13.154Z,96.00
2023-02-22T20:48:41.031Z,89.05
2023-02-22T20:51:10.102Z,96.13
2023-02-22T20:53:41.743Z,93.78
2023-02-22T20:56:13.794Z,92.03
2023-02-22T20:58:43.835Z,99.30
2023-02-22T21:01:13.907Z,94.15
2023-02-22T21:03:42.906Z,100.25
2023-02-22T21:06:11.934Z,96.43
2023-02-22T21:08:40.110Z,106.15
2023-02-22T21:11:11.859Z,101.57
2023-02-22T21:13:39.826Z,101.60
2023-02-22T21:16:11.305Z,96.13
2023-02-22T21:18:39.153Z,98.57
2023-02-22T21:21:10.373Z,99.78
2023-02-22T21:23:38.546Z,90.43
2023-02-22T21:26:07.311Z,88.03
2023-02-22T21:28:50.417Z,93.78
2023-02-22T21:31:22.321Z,104.35
2023-02-22T21:33:51.778Z,98.65
2023-02-22T21:36:19.880Z,96.30
2023-02-22T21:38:53.245Z,100.53
2023-02-22T21:41:22.124Z,101.30
2023-02-22T21:43:51.436Z,106.75
2023-02-22T21:46:20.875Z,105.75
2023-02-22T21:48:49.377Z,92.47
2023-02-22T21:51:19.878Z,111.38
2023-02-22T21:53:49.554Z,119.88
2023-02-22T21:56:19.641Z,109.38
2023-02-22T21:58:50.149Z,107.95
2023-02-22T22:01:18.358Z,104.10
2023-02-22T22:03:48.061Z,106.18
2023-02-22T22:06:15.846Z,99.13
2023-02-22T22:08:46.336Z,106.28
2023-02-22T22:11:17.953Z,97.72
2023-02-22T22:13:46.328Z,96.18
2023-02-22T22:16:16.439Z,88.20
2023-02-22T22:18:45.947Z,104.35
2023-02-22T22:21:18.050Z,98.72
2023-02-22T22:23:47.532Z,96.35
2023-02-22T22:26:16.895Z,104.50
2023-02-22T22:28:46.264Z,101.20
2023-02-22T22:31:15.729Z,102.97
2023-02-22T22:33:45.360Z,97.93
2023-02-22T22:36:16.679Z,98.72
2023-02-22T22:38:47.181Z,107.60
2023-02-22T22:41:17.103Z,93.47
2023-02-22T22:43:46.188Z,93.95
2023-02-22T22:46:15.165Z,94.43
2023-02-22T22:48:43.503Z,98.47
2023-02-22T22:51:14.483Z,93.38
2023-02-22T22:53:45.601Z,98.18
2023-02-22T22:56:16.313Z,106.55
2023-02-22T22:58:47.727Z,110.90
2023-02-22T23:01:19.733Z,101.35
2023-02-22T23:03:55.092Z,95.57
2023-02-22T23:06:25.939Z,109.13
2023-02-22T23:09:10.259Z,118.43
2023-02-22T23:11:44.570Z,112.55
2023-02-22T23:14:14.877Z,110.68
2023-02-22T23:16:43.044Z,108.05
2023-02-22T23:19:11.021Z,103.65
2023-02-22T23:21:39.480Z,102.65
2023-02-22T23:24:08.938Z,101.60
2023-02-22T23:26:36.912Z,106.05
2023-02-22T23:29:05.478Z,111.75
2023-02-22T23:31:33.402Z,105.63
2023-02-22T23:34:06.658Z,100.55
2023-02-22T23:36:34.630Z,94.88
2023-02-22T23:39:02.387Z,102.90
2023-02-22T23:41:31.540Z,103.22
2023-02-22T23:44:00.067Z,108.07
2023-02-22T23:46:32.712Z,98.55
2023-02-22T23:49:02.649Z,96.85
2023-02-22T23:51:39.216Z,96.03
2023-02-22T23:54:09.122Z,103.45
2023-02-22T23:56:40.317Z,99.15
2023-02-22T23:59:11.248Z,98.50
